createdAt,value
2017-03-30T00:01:09.613Z,1020.68
2017-03-30T00:02:19.224Z,1020.65
2017-03-30T00:03:28.843Z,1020.63
2017-03-30T00:04:38.767Z,1020.66
2017-03-30T00:05:48.070Z,1020.66
2017-03-30T00:06:58.318Z,1020.69
2017-03-30T00:08:08.560Z,1020.74
2017-03-30T00:09:18.486Z,1020.76
2017-03-30T00:10:28.411Z,1020.74
2017-03-30T00:11:38.655Z,1020.76
2017-03-30T00:12:48.905Z,1020.72
2017-03-30T00:13:59.151Z,1020.73
2017-03-30T00:15:09.399Z,1020.72
2017-03-30T00:16:19.642Z,1020.73
2017-03-30T00:17:29.885Z,1020.76
2017-03-30T00:18:39.811Z,1020.73
2017-03-30T00:19:49.737Z,1020.74
2017-03-30T00:20:59.661Z,1020.72
2017-03-30T00:22:09.902Z,1020.72
2017-03-30T00:23:19.204Z,1020.72
2017-03-30T00:24:29.450Z,1020.73
2017-03-30T00:25:38.752Z,1020.74
2017-03-30T00:26:48.991Z,1020.74
2017-03-30T00:27:58.926Z,1020.76
2017-03-30T00:29:08.857Z,1020.75
2017-03-30T00:30:19.102Z,1020.76
2017-03-30T00:31:29.354Z,1020.77
2017-03-30T00:32:39.283Z,1020.75
2017-03-30T00:33:49.521Z,1020.72
2017-03-30T00:34:59.133Z,1020.73
2017-03-30T00:36:09.086Z,1020.74
2017-03-30T00:37:18.077Z,1020.76
2017-03-30T00:38:27.692Z,1020.7
2017-03-30T00:39:37.618Z,1020.75
2017-03-30T00:40:47.860Z,1020.77
2017-03-30T00:41:58.108Z,1020.73
2017-03-30T00:43:08.348Z,1020.72
2017-03-30T00:44:18.284Z,1020.74
2017-03-30T00:45:28.218Z,1020.71
2017-03-30T00:46:37.839Z,1020.69
2017-03-30T00:47:47.764Z,1020.7
2017-03-30T00:48:58.002Z,1020.7
2017-03-30T00:50:07.925Z,1020.72
2017-03-30T00:51:18.162Z,1020.71
2017-03-30T00:52:28.089Z,1020.7
2017-03-30T00:53:38.054Z,1020.7
2017-03-30T00:54:48.319Z,1020.69
2017-03-30T00:55:58.244Z,1020.64
2017-03-30T00:57:08.170Z,1020.67
2017-03-30T00:58:18.096Z,1020.68
2017-03-30T00:59:28.345Z,1020.7
2017-03-30T01:00:38.289Z,1020.68
2017-03-30T01:01:48.214Z,1020.7
2017-03-30T01:02:58.151Z,1020.68
2017-03-30T01:04:07.770Z,1020.65
2017-03-30T01:05:18.007Z,1020.68
2017-03-30T01:06:28.243Z,1020.69
2017-03-30T01:07:38.484Z,1020.68
2017-03-30T01:08:48.723Z,1020.73
2017-03-30T01:09:58.962Z,1020.69
2017-03-30T01:11:09.199Z,1020.72
2017-03-30T01:12:19.131Z,1020.73
2017-03-30T01:13:29.370Z,1020.71
2017-03-30T01:14:39.300Z,1020.73
2017-03-30T01:15:49.537Z,1020.74
2017-03-30T01:16:59.467Z,1020.76
2017-03-30T01:18:09.405Z,1020.75
2017-03-30T01:19:19.335Z,1020.74
2017-03-30T01:20:29.579Z,1020.7
2017-03-30T01:21:39.508Z,1020.7
2017-03-30T01:22:49.436Z,1020.74
2017-03-30T01:23:58.770Z,1020.74
2017-03-30T01:25:09.013Z,1020.75
2017-03-30T01:26:19.254Z,1020.74
2017-03-30T01:27:29.493Z,1020.72
2017-03-30T01:28:39.421Z,1020.72
2017-03-30T01:29:49.358Z,1020.67
2017-03-30T01:30:59.284Z,1020.71
2017-03-30T01:32:09.212Z,1020.69
2017-03-30T01:33:19.454Z,1020.73
2017-03-30T01:34:29.390Z,1020.75
2017-03-30T01:35:39.322Z,1020.75
2017-03-30T01:36:49.569Z,1020.77
2017-03-30T01:37:59.808Z,1020.76
2017-03-30T01:39:10.048Z,1020.77
2017-03-30T01:40:19.970Z,1020.79
2017-03-30T01:41:29.903Z,1020.77
2017-03-30T01:42:39.834Z,1020.74
2017-03-30T01:43:50.077Z,1020.72
2017-03-30T01:45:00.317Z,1020.67
2017-03-30T01:46:10.244Z,1020.63
2017-03-30T01:47:19.858Z,1020.68
2017-03-30T01:48:30.129Z,1020.65
2017-03-30T01:49:40.059Z,1020.68
2017-03-30T01:50:49.365Z,1020.67
2017-03-30T01:51:59.650Z,1020.69
2017-03-30T01:53:09.581Z,1020.71
2017-03-30T01:54:19.817Z,1020.73
2017-03-30T01:55:29.438Z,1020.74
2017-03-30T01:56:39.365Z,1020.71
2017-03-30T01:57:49.608Z,1020.75
2017-03-30T01:58:59.540Z,1020.72
2017-03-30T02:00:09.804Z,1020.67
2017-03-30T02:01:19.734Z,1020.71
2017-03-30T02:02:29.978Z,1020.66
2017-03-30T02:03:40.219Z,1020.68
2017-03-30T02:04:50.149Z,1020.69
2017-03-30T02:06:00.394Z,1020.66
2017-03-30T02:07:10.637Z,1020.67
2017-03-30T02:08:20.564Z,1020.69
2017-03-30T02:09:30.810Z,1020.72
2017-03-30T02:10:41.045Z,1020.76
2017-03-30T02:11:51.286Z,1020.79
2017-03-30T02:13:01.233Z,1020.81
2017-03-30T02:14:11.164Z,1020.8
2017-03-30T02:15:21.089Z,1020.85
2017-03-30T02:16:30.706Z,1020.85
2017-03-30T02:17:40.940Z,1020.81
2017-03-30T02:18:50.865Z,1020.89
2017-03-30T02:20:01.111Z,1020.91
2017-03-30T02:21:11.042Z,1020.91
2017-03-30T02:22:21.300Z,1020.93
2017-03-30T02:23:31.230Z,1020.92
2017-03-30T02:24:41.476Z,1020.92
2017-03-30T02:25:51.088Z,1020.89
2017-03-30T02:27:01.016Z,1020.91
2017-03-30T02:28:10.978Z,1020.89
2017-03-30T02:29:20.900Z,1020.88
2017-03-30T02:30:30.517Z,1020.89
2017-03-30T02:31:40.447Z,1020.89
2017-03-30T02:32:50.694Z,1020.85
2017-03-30T02:34:00.936Z,1020.83
2017-03-30T02:35:10.870Z,1020.86
2017-03-30T02:36:21.110Z,1020.86
2017-03-30T02:37:31.349Z,1020.83
2017-03-30T02:38:41.275Z,1020.87
2017-03-30T02:39:50.885Z,1020.93
2017-03-30T02:41:01.124Z,1020.93
2017-03-30T02:42:11.063Z,1020.95
2017-03-30T02:43:21.303Z,1020.96
2017-03-30T02:44:30.915Z,1021.01
2017-03-30T02:45:40.839Z,1020.94
2017-03-30T02:46:51.078Z,1020.98
2017-03-30T02:48:00.692Z,1020.99
2017-03-30T02:49:10.953Z,1020.95
2017-03-30T02:50:21.193Z,1020.96
2017-03-30T02:51:31.432Z,1020.96
2017-03-30T02:52:41.051Z,1020.96
2017-03-30T02:53:50.978Z,1020.96
2017-03-30T02:55:01.247Z,1020.98
2017-03-30T02:56:11.482Z,1020.98
2017-03-30T02:57:21.409Z,1020.96
2017-03-30T02:58:31.648Z,1020.99
2017-03-30T02:59:41.581Z,1020.99
2017-03-30T03:00:51.514Z,1020.98
2017-03-30T03:02:01.754Z,1020.99
2017-03-30T03:03:11.686Z,1020.99
2017-03-30T03:04:21.614Z,1020.96
2017-03-30T03:05:31.855Z,1021.03
2017-03-30T03:06:41.801Z,1020.99
2017-03-30T03:07:52.044Z,1021.03
2017-03-30T03:09:02.283Z,1021.05
2017-03-30T03:10:11.895Z,1021.04
2017-03-30T03:11:22.143Z,1021
2017-03-30T03:12:32.384Z,1021.02
2017-03-30T03:13:41.996Z,1020.99
2017-03-30T03:14:52.238Z,1021
2017-03-30T03:16:02.171Z,1020.98
2017-03-30T03:17:12.102Z,1020.98
2017-03-30T03:18:21.732Z,1020.96
2017-03-30T03:19:31.657Z,1020.99
2017-03-30T03:20:41.586Z,1020.98
2017-03-30T03:21:51.527Z,1020.98
2017-03-30T03:23:01.156Z,1020.97
2017-03-30T03:24:11.398Z,1020.99
2017-03-30T03:25:21.662Z,1020.95
2017-03-30T03:26:31.591Z,1020.98
2017-03-30T03:27:41.527Z,1020.96
2017-03-30T03:28:51.461Z,1020.94
2017-03-30T03:30:01.387Z,1020.96
2017-03-30T03:31:11.626Z,1020.93
2017-03-30T03:32:21.249Z,1020.9
2017-03-30T03:33:31.485Z,1020.9
2017-03-30T03:34:41.098Z,1020.91
2017-03-30T03:35:50.713Z,1020.91
2017-03-30T03:37:00.642Z,1020.9
2017-03-30T03:38:10.880Z,1020.89
2017-03-30T03:39:20.493Z,1020.9
2017-03-30T03:40:30.429Z,1020.94
2017-03-30T03:41:40.360Z,1020.95
2017-03-30T03:42:50.290Z,1020.98
2017-03-30T03:44:00.241Z,1020.99
2017-03-30T03:45:10.168Z,1021
2017-03-30T03:46:19.782Z,1021.02
2017-03-30T03:47:30.028Z,1021
2017-03-30T03:48:40.271Z,1021
2017-03-30T03:49:50.200Z,1021.03
2017-03-30T03:51:00.145Z,1021.07
2017-03-30T03:52:09.759Z,1020.99
2017-03-30T03:53:19.685Z,1020.95
2017-03-30T03:54:29.611Z,1020.91
2017-03-30T03:55:39.568Z,1020.93
2017-03-30T03:56:49.489Z,1020.99
2017-03-30T03:57:59.102Z,1020.98
2017-03-30T03:59:09.060Z,1020.99
2017-03-30T04:00:18.996Z,1021.06
2017-03-30T04:01:29.235Z,1021.08
2017-03-30T04:02:39.478Z,1021.11
2017-03-30T04:03:49.411Z,1021.1
2017-03-30T04:04:59.343Z,1021.11
2017-03-30T04:06:09.293Z,1021.1
2017-03-30T04:07:19.222Z,1021.12
2017-03-30T04:08:29.479Z,1021.14
2017-03-30T04:09:39.411Z,1021.16
2017-03-30T04:10:49.341Z,1021.14
2017-03-30T04:11:58.955Z,1021.14
2017-03-30T04:13:08.567Z,1021.16
2017-03-30T04:14:18.494Z,1021.19
2017-03-30T04:15:28.729Z,1021.17
2017-03-30T04:16:38.037Z,1021.16
2017-03-30T04:17:47.658Z,1021.19
2017-03-30T04:18:56.956Z,1021.2
2017-03-30T04:20:06.880Z,1021.2
2017-03-30T04:21:16.840Z,1021.25
2017-03-30T04:22:27.088Z,1021.18
2017-03-30T04:23:37.020Z,1021.2
2017-03-30T04:24:47.258Z,1021.21
2017-03-30T04:25:57.507Z,1021.21
2017-03-30T04:27:07.457Z,1021.22
2017-03-30T04:28:17.695Z,1021.23
2017-03-30T04:29:27.935Z,1021.24
2017-03-30T04:30:37.872Z,1021.23
2017-03-30T04:31:48.113Z,1021.21
2017-03-30T04:32:58.361Z,1021.21
2017-03-30T04:34:07.984Z,1021.26
2017-03-30T04:35:18.220Z,1021.26
2017-03-30T04:36:28.150Z,1021.28
2017-03-30T04:37:38.078Z,1021.26
2017-03-30T04:38:48.327Z,1021.25
2017-03-30T04:39:57.943Z,1021.28
2017-03-30T04:41:07.881Z,1021.26
2017-03-30T04:42:17.488Z,1021.26
2017-03-30T04:43:27.414Z,1021.24
2017-03-30T04:44:37.664Z,1021.24
2017-03-30T04:45:47.597Z,1021.31
2017-03-30T04:46:57.842Z,1021.27
2017-03-30T04:48:08.082Z,1021.24
2017-03-30T04:49:18.007Z,1021.25
2017-03-30T04:50:27.938Z,1021.22
2017-03-30T04:51:37.562Z,1021.22
2017-03-30T04:52:47.493Z,1021.27
2017-03-30T04:53:57.427Z,1021.25
2017-03-30T04:55:07.054Z,1021.23
2017-03-30T04:56:17.299Z,1021.29
2017-03-30T04:57:27.227Z,1021.26
2017-03-30T04:58:37.156Z,1021.29
2017-03-30T04:59:47.393Z,1021.29
2017-03-30T05:00:57.632Z,1021.29
2017-03-30T05:02:07.874Z,1021.28
2017-03-30T05:03:17.798Z,1021.3
2017-03-30T05:04:28.039Z,1021.3
2017-03-30T05:05:37.970Z,1021.31
2017-03-30T05:06:47.904Z,1021.28
2017-03-30T05:07:57.833Z,1021.29
2017-03-30T05:09:07.782Z,1021.29
2017-03-30T05:10:17.718Z,1021.31
2017-03-30T05:11:27.642Z,1021.3
2017-03-30T05:12:37.578Z,1021.3
2017-03-30T05:13:47.819Z,1021.29
2017-03-30T05:14:57.756Z,1021.31
2017-03-30T05:16:07.375Z,1021.31
2017-03-30T05:17:17.622Z,1021.33
2017-03-30T05:18:27.235Z,1021.32
2017-03-30T05:19:37.165Z,1021.34
2017-03-30T05:20:47.094Z,1021.3
2017-03-30T05:21:57.338Z,1021.37
2017-03-30T05:23:07.278Z,1021.35
2017-03-30T05:24:17.200Z,1021.34
2017-03-30T05:25:27.132Z,1021.34
2017-03-30T05:26:36.751Z,1021.38
2017-03-30T05:27:46.681Z,1021.34
2017-03-30T05:28:56.921Z,1021.36
2017-03-30T05:30:07.163Z,1021.37
2017-03-30T05:31:17.402Z,1021.39
2017-03-30T05:32:27.642Z,1021.37
2017-03-30T05:33:37.280Z,1021.4
2017-03-30T05:34:47.214Z,1021.4
2017-03-30T05:35:57.457Z,1021.43
2017-03-30T05:37:07.411Z,1021.42
2017-03-30T05:38:17.661Z,1021.44
2017-03-30T05:39:27.917Z,1021.43
2017-03-30T05:40:38.162Z,1021.47
2017-03-30T05:41:48.408Z,1021.46
2017-03-30T05:42:58.654Z,1021.46
2017-03-30T05:44:08.583Z,1021.45
2017-03-30T05:45:18.516Z,1021.46
2017-03-30T05:46:28.793Z,1021.46
2017-03-30T05:47:39.038Z,1021.46
2017-03-30T05:48:48.346Z,1021.44
2017-03-30T05:49:57.961Z,1021.43
2017-03-30T05:51:07.573Z,1021.45
2017-03-30T05:52:17.188Z,1021.46
2017-03-30T05:53:27.436Z,1021.48
2017-03-30T05:54:37.367Z,1021.47
2017-03-30T05:55:47.298Z,1021.44
2017-03-30T05:56:56.599Z,1021.47
2017-03-30T05:58:06.835Z,1021.46
2017-03-30T05:59:16.449Z,1021.45
2017-03-30T06:00:26.376Z,1021.46
2017-03-30T06:01:36.324Z,1021.49
2017-03-30T06:02:46.248Z,1021.52
2017-03-30T06:03:56.184Z,1021.52
2017-03-30T06:05:06.423Z,1021.53
2017-03-30T06:06:16.659Z,1021.55
2017-03-30T06:07:26.289Z,1021.52
2017-03-30T06:08:36.560Z,1021.53
2017-03-30T06:09:46.496Z,1021.54
2017-03-30T06:10:56.748Z,1021.53
2017-03-30T06:12:06.679Z,1021.53
2017-03-30T06:13:16.627Z,1021.5
2017-03-30T06:14:26.243Z,1021.51
2017-03-30T06:15:36.172Z,1021.53
2017-03-30T06:16:46.108Z,1021.55
2017-03-30T06:17:55.728Z,1021.58
2017-03-30T06:19:05.663Z,1021.54
2017-03-30T06:20:15.909Z,1021.55
2017-03-30T06:21:25.840Z,1021.56
2017-03-30T06:22:36.083Z,1021.55
2017-03-30T06:23:45.699Z,1021.55
2017-03-30T06:24:55.934Z,1021.57
2017-03-30T06:26:05.866Z,1021.55
2017-03-30T06:27:16.106Z,1021.55
2017-03-30T06:28:26.039Z,1021.55
2017-03-30T06:29:35.973Z,1021.53
2017-03-30T06:30:46.208Z,1021.55
2017-03-30T06:31:56.444Z,1021.52
2017-03-30T06:33:06.060Z,1021.49
2017-03-30T06:34:15.991Z,1021.51
2017-03-30T06:35:25.916Z,1021.53
2017-03-30T06:36:36.166Z,1021.55
2017-03-30T06:37:46.411Z,1021.56
2017-03-30T06:38:56.017Z,1021.52
2017-03-30T06:40:05.949Z,1021.53
2017-03-30T06:41:15.879Z,1021.55
2017-03-30T06:42:26.127Z,1021.54
2017-03-30T06:43:36.057Z,1021.51
2017-03-30T06:44:46.300Z,1021.6
2017-03-30T06:45:56.231Z,1021.54
2017-03-30T06:47:06.164Z,1021.54
2017-03-30T06:48:16.411Z,1021.51
2017-03-30T06:49:26.660Z,1021.5
2017-03-30T06:50:36.592Z,1021.55
2017-03-30T06:51:46.525Z,1021.54
2017-03-30T06:52:56.771Z,1021.54
2017-03-30T06:54:06.387Z,1021.54
2017-03-30T06:55:16.311Z,1021.56
2017-03-30T06:56:26.241Z,1021.56
2017-03-30T06:57:36.490Z,1021.59
2017-03-30T06:58:46.741Z,1021.57
2017-03-30T06:59:56.986Z,1021.6
2017-03-30T07:01:06.916Z,1021.6
2017-03-30T07:02:16.534Z,1021.62
2017-03-30T07:03:26.457Z,1021.62
2017-03-30T07:04:36.719Z,1021.62
2017-03-30T07:05:46.025Z,1021.61
2017-03-30T07:06:55.639Z,1021.64
2017-03-30T07:08:05.878Z,1021.66
2017-03-30T07:09:15.496Z,1021.66
2017-03-30T07:10:25.742Z,1021.68
2017-03-30T07:11:35.358Z,1021.7
2017-03-30T07:12:45.604Z,1021.71
2017-03-30T07:13:55.849Z,1021.7
2017-03-30T07:15:05.460Z,1021.7
2017-03-30T07:16:15.708Z,1021.68
2017-03-30T07:17:25.948Z,1021.69
2017-03-30T07:18:35.875Z,1021.73
2017-03-30T07:19:46.115Z,1021.77
2017-03-30T07:20:56.357Z,1021.74
2017-03-30T07:22:06.282Z,1021.75
2017-03-30T07:23:16.210Z,1021.78
2017-03-30T07:24:26.137Z,1021.76
2017-03-30T07:25:36.373Z,1021.78
2017-03-30T07:26:46.620Z,1021.76
2017-03-30T07:27:56.560Z,1021.78
2017-03-30T07:29:06.798Z,1021.72
2017-03-30T07:30:17.050Z,1021.77
2017-03-30T07:31:26.662Z,1021.74
2017-03-30T07:32:36.589Z,1021.77
2017-03-30T07:33:46.829Z,1021.78
2017-03-30T07:34:56.757Z,1021.74
2017-03-30T07:36:06.686Z,1021.78
2017-03-30T07:37:16.939Z,1021.84
2017-03-30T07:38:27.175Z,1021.83
2017-03-30T07:39:37.100Z,1021.82
2017-03-30T07:40:47.037Z,1021.81
2017-03-30T07:41:56.659Z,1021.81
2017-03-30T07:43:06.909Z,1021.83
2017-03-30T07:44:16.838Z,1021.83
2017-03-30T07:45:27.077Z,1021.85
2017-03-30T07:46:37.002Z,1021.85
2017-03-30T07:47:46.931Z,1021.85
2017-03-30T07:48:56.545Z,1021.85
2017-03-30T07:50:06.474Z,1021.83
2017-03-30T07:51:16.403Z,1021.84
2017-03-30T07:52:26.641Z,1021.87
2017-03-30T07:53:36.256Z,1021.83
2017-03-30T07:54:45.874Z,1021.87
2017-03-30T07:55:56.121Z,1021.91
2017-03-30T07:57:05.732Z,1021.91
2017-03-30T07:58:15.976Z,1021.89
2017-03-30T07:59:26.212Z,1021.88
2017-03-30T08:00:36.461Z,1021.92
2017-03-30T08:01:46.712Z,1021.94
2017-03-30T08:02:56.646Z,1021.99
2017-03-30T08:04:06.615Z,1021.93
2017-03-30T08:05:16.857Z,1021.98
2017-03-30T08:06:27.102Z,1022
2017-03-30T08:07:37.347Z,1021.95
2017-03-30T08:08:47.588Z,1021.98
2017-03-30T08:09:57.512Z,1021.99
2017-03-30T08:11:07.129Z,1022.03
2017-03-30T08:12:17.063Z,1022
2017-03-30T08:13:27.300Z,1022.01
2017-03-30T08:14:37.226Z,1022.02
2017-03-30T08:15:47.157Z,1021.98
2017-03-30T08:16:56.771Z,1022.02
2017-03-30T08:18:07.010Z,1021.98
2017-03-30T08:19:16.625Z,1022
2017-03-30T08:20:26.873Z,1022.05
2017-03-30T08:21:36.803Z,1021.99
2017-03-30T08:22:47.052Z,1022.04
2017-03-30T08:23:56.982Z,1022.08
2017-03-30T08:25:07.224Z,1022.1
2017-03-30T08:26:17.491Z,1022.08
2017-03-30T08:27:27.735Z,1022.1
2017-03-30T08:28:37.349Z,1022.12
2017-03-30T08:29:47.275Z,1022.08
2017-03-30T08:30:57.513Z,1022.11
2017-03-30T08:32:07.759Z,1022.15
2017-03-30T08:33:17.693Z,1022.13
2017-03-30T08:34:27.621Z,1022.12
2017-03-30T08:35:37.548Z,1022.12
2017-03-30T08:36:47.788Z,1022.13
2017-03-30T08:37:58.031Z,1022.15
2017-03-30T08:39:07.341Z,1022.12
2017-03-30T08:40:17.271Z,1022.17
2017-03-30T08:41:27.521Z,1022.15
2017-03-30T08:42:37.769Z,1022.16
2017-03-30T08:43:47.695Z,1022.16
2017-03-30T08:44:57.623Z,1022.17
2017-03-30T08:46:07.879Z,1022.16
2017-03-30T08:47:18.117Z,1022.15
2017-03-30T08:48:28.053Z,1022.11
2017-03-30T08:49:38.294Z,1022.12
2017-03-30T08:50:48.789Z,1022.13
2017-03-30T08:51:59.038Z,1022.1
2017-03-30T08:53:09.288Z,1022.1
2017-03-30T08:54:19.561Z,1022.1
2017-03-30T08:55:29.180Z,1022.1
2017-03-30T08:56:39.419Z,1022.11
2017-03-30T08:57:49.343Z,1022.15
2017-03-30T08:58:59.582Z,1022.12
2017-03-30T09:00:09.512Z,1022.16
2017-03-30T09:01:19.759Z,1022.19
2017-03-30T09:02:30.029Z,1022.18
2017-03-30T09:03:40.272Z,1022.2
2017-03-30T09:04:50.518Z,1022.26
2017-03-30T09:06:00.765Z,1022.25
2017-03-30T09:07:10.704Z,1022.22
2017-03-30T09:08:20.953Z,1022.24
2017-03-30T09:09:30.884Z,1022.24
2017-03-30T09:10:40.505Z,1022.28
2017-03-30T09:11:50.744Z,1022.23
2017-03-30T09:13:00.987Z,1022.25
2017-03-30T09:14:10.912Z,1022.23
2017-03-30T09:15:21.153Z,1022.27
2017-03-30T09:16:31.080Z,1022.25
2017-03-30T09:17:41.320Z,1022.24
2017-03-30T09:18:51.560Z,1022.24
2017-03-30T09:20:01.805Z,1022.25
2017-03-30T09:21:12.053Z,1022.25
2017-03-30T09:22:21.671Z,1022.23
2017-03-30T09:23:31.924Z,1022.21
2017-03-30T09:24:41.542Z,1022.21
2017-03-30T09:25:51.167Z,1022.22
2017-03-30T09:27:01.097Z,1022.19
2017-03-30T09:28:10.713Z,1022.15
2017-03-30T09:29:20.325Z,1022.16
2017-03-30T09:30:29.946Z,1022.18
2017-03-30T09:31:40.265Z,1022.14
2017-03-30T09:32:50.510Z,1022.08
2017-03-30T09:34:00.434Z,1022.11
2017-03-30T09:35:10.354Z,1022.07
2017-03-30T09:36:20.288Z,1022.07
2017-03-30T09:37:30.217Z,1022.09
2017-03-30T09:38:40.156Z,1022.09
2017-03-30T09:39:50.083Z,1022.04
2017-03-30T09:40:59.697Z,1022.07
2017-03-30T09:42:09.971Z,1022.06
2017-03-30T09:43:19.909Z,1022.08
2017-03-30T09:44:30.146Z,1022.04
2017-03-30T09:45:40.387Z,1022.07
2017-03-30T09:46:50.627Z,1022.09
2017-03-30T09:48:00.873Z,1022.06
2017-03-30T09:49:11.109Z,1022.04
2017-03-30T09:50:21.033Z,1022.06
2017-03-30T09:51:30.970Z,1022.08
2017-03-30T09:52:41.207Z,1022.08
2017-03-30T09:53:51.144Z,1022.08
2017-03-30T09:55:01.075Z,1022.08
2017-03-30T09:56:11.009Z,1022.09
2017-03-30T09:57:20.943Z,1022.07
2017-03-30T09:58:31.180Z,1022.05
2017-03-30T09:59:41.109Z,1022.06
2017-03-30T10:00:51.355Z,1022.09
2017-03-30T10:02:01.594Z,1022.07
2017-03-30T10:03:11.525Z,1022.07
2017-03-30T10:04:21.771Z,1022.04
2017-03-30T10:05:31.703Z,1022.01
2017-03-30T10:06:41.317Z,1022.06
2017-03-30T10:07:51.588Z,1022.06
2017-03-30T10:09:01.536Z,1022.03
2017-03-30T10:10:11.154Z,1022.06
2017-03-30T10:11:21.393Z,1022.05
2017-03-30T10:12:31.334Z,1022.03
2017-03-30T10:13:41.581Z,1022.01
2017-03-30T10:14:51.517Z,1022
2017-03-30T10:16:01.760Z,1022
2017-03-30T10:17:11.999Z,1022
2017-03-30T10:18:21.310Z,1021.96
2017-03-30T10:19:31.248Z,1022
2017-03-30T10:20:41.546Z,1021.91
2017-03-30T10:21:51.749Z,1021.93
2017-03-30T10:23:02.359Z,1021.95
2017-03-30T10:24:12.560Z,1021.94
2017-03-30T10:25:22.754Z,1021.9
2017-03-30T10:26:33.244Z,1021.88
2017-03-30T10:27:43.492Z,1021.89
2017-03-30T10:28:53.981Z,1021.84
2017-03-30T10:30:04.198Z,1021.84
2017-03-30T10:31:14.139Z,1021.84
2017-03-30T10:32:24.264Z,1021.84
2017-03-30T10:33:34.844Z,1021.89
2017-03-30T10:34:45.451Z,1021.92
2017-03-30T10:35:56.131Z,1021.84
2017-03-30T10:37:06.622Z,1021.84
2017-03-30T10:38:16.804Z,1021.84
2017-03-30T10:39:26.981Z,1021.81
2017-03-30T10:40:37.213Z,1021.82
2017-03-30T10:41:47.241Z,1021.82
2017-03-30T10:42:56.886Z,1021.84
2017-03-30T10:44:07.365Z,1021.81
2017-03-30T10:45:17.071Z,1021.79
2017-03-30T10:46:27.372Z,1021.76
2017-03-30T10:47:36.817Z,1021.79
2017-03-30T10:48:46.795Z,1021.78
2017-03-30T10:49:57.289Z,1021.77
2017-03-30T10:51:07.216Z,1021.72
2017-03-30T10:52:17.207Z,1021.74
2017-03-30T10:53:26.309Z,1021.71
2017-03-30T10:54:36.349Z,1021.72
2017-03-30T10:55:46.764Z,1021.73
2017-03-30T10:56:57.057Z,1021.73
2017-03-30T10:58:07.082Z,1021.67
2017-03-30T10:59:17.094Z,1021.67
2017-03-30T11:00:26.752Z,1021.7
2017-03-30T11:01:37.033Z,1021.71
2017-03-30T11:02:47.028Z,1021.69
2017-03-30T11:03:57.019Z,1021.66
2017-03-30T11:05:07.351Z,1021.6
2017-03-30T11:06:17.329Z,1021.57
2017-03-30T11:07:27.307Z,1021.61
2017-03-30T11:08:37.578Z,1021.57
2017-03-30T11:09:47.913Z,1021.62
2017-03-30T11:10:57.856Z,1021.57
2017-03-30T11:12:07.826Z,1021.57
2017-03-30T11:13:18.094Z,1021.69
2017-03-30T11:14:28.343Z,1021.66
2017-03-30T11:15:38.689Z,1021.56
2017-03-30T11:16:48.339Z,1021.56
2017-03-30T11:17:58.648Z,1021.57
2017-03-30T11:19:08.983Z,1021.58
2017-03-30T11:20:18.626Z,1021.63
2017-03-30T11:21:28.921Z,1021.77
2017-03-30T11:22:38.592Z,1021.56
2017-03-30T11:23:48.637Z,1021.6
2017-03-30T11:24:58.294Z,1021.6
2017-03-30T11:26:08.609Z,1021.51
2017-03-30T11:27:18.929Z,1021.55
2017-03-30T11:28:28.573Z,1021.57
2017-03-30T11:29:38.296Z,1021.58
2017-03-30T11:30:48.584Z,1021.56
2017-03-30T11:31:58.857Z,1021.54
2017-03-30T11:33:09.242Z,1021.57
2017-03-30T11:34:18.932Z,1021.62
2017-03-30T11:35:28.884Z,1021.64
2017-03-30T11:36:38.831Z,1021.6
2017-03-30T11:37:48.509Z,1021.56
2017-03-30T11:38:58.805Z,1021.54
2017-03-30T11:40:08.471Z,1021.48
2017-03-30T11:41:18.415Z,1021.48
2017-03-30T11:42:28.679Z,1021.47
2017-03-30T11:43:38.648Z,1021.49
2017-03-30T11:44:48.647Z,1021.52
2017-03-30T11:45:58.595Z,1021.52
2017-03-30T11:47:08.644Z,1021.46
2017-03-30T11:48:18.277Z,1021.5
2017-03-30T11:49:27.920Z,1021.48
2017-03-30T11:50:37.589Z,1021.52
2017-03-30T11:51:47.208Z,1021.52
2017-03-30T11:52:57.526Z,1021.47
2017-03-30T11:54:07.521Z,1021.49
2017-03-30T11:55:17.462Z,1021.51
2017-03-30T11:56:27.436Z,1021.5
2017-03-30T11:57:37.488Z,1021.46
2017-03-30T11:58:47.161Z,1021.49
2017-03-30T11:59:57.136Z,1021.47
2017-03-30T12:01:06.807Z,1021.49
2017-03-30T12:02:17.084Z,1021.52
2017-03-30T12:03:26.774Z,1021.47
2017-03-30T12:04:36.508Z,1021.52
2017-03-30T12:05:46.542Z,1021.52
2017-03-30T12:06:56.576Z,1021.52
2017-03-30T12:08:06.576Z,1021.5
2017-03-30T12:09:16.626Z,1021.47
2017-03-30T12:10:26.662Z,1021.51
2017-03-30T12:11:36.024Z,1021.5
2017-03-30T12:12:46.343Z,1021.5
2017-03-30T12:13:56.097Z,1021.47
2017-03-30T12:15:06.094Z,1021.43
2017-03-30T12:16:16.180Z,1021.4
2017-03-30T12:17:25.822Z,1021.42
2017-03-30T12:18:35.827Z,1021.38
2017-03-30T12:19:45.496Z,1021.38
2017-03-30T12:20:55.473Z,1021.39
2017-03-30T12:22:05.797Z,1021.37
2017-03-30T12:23:16.093Z,1021.41
2017-03-30T12:24:26.047Z,1021.42
2017-03-30T12:25:35.998Z,1021.42
2017-03-30T12:26:45.977Z,1021.39
2017-03-30T12:27:55.951Z,1021.45
2017-03-30T12:29:05.634Z,1021.39
2017-03-30T12:30:15.614Z,1021.41
2017-03-30T12:31:25.274Z,1021.36
2017-03-30T12:32:35.247Z,1021.3
2017-03-30T12:33:45.544Z,1021.26
2017-03-30T12:34:55.872Z,1021.28
2017-03-30T12:36:06.170Z,1021.24
2017-03-30T12:37:16.454Z,1021.28
2017-03-30T12:38:26.824Z,1021.26
2017-03-30T12:39:37.136Z,1021.21
2017-03-30T12:40:47.099Z,1021.22
2017-03-30T12:41:57.377Z,1021.21
2017-03-30T12:43:07.643Z,1021.18
2017-03-30T12:44:17.631Z,1021.21
2017-03-30T12:45:27.325Z,1021.25
2017-03-30T12:46:37.307Z,1021.19
2017-03-30T12:47:46.942Z,1021.12
2017-03-30T12:48:56.941Z,1021.17
2017-03-30T12:50:06.596Z,1021.1
2017-03-30T12:51:16.627Z,1021.05
2017-03-30T12:52:26.287Z,1021.03
2017-03-30T12:53:36.243Z,1021.01
2017-03-30T12:54:46.235Z,1020.97
2017-03-30T12:55:56.537Z,1021
2017-03-30T12:57:06.565Z,1020.98
2017-03-30T12:58:16.952Z,1020.91
2017-03-30T12:59:26.623Z,1021
2017-03-30T13:00:36.253Z,1020.91
2017-03-30T13:01:46.599Z,1020.97
2017-03-30T13:02:56.633Z,1020.94
2017-03-30T13:04:06.635Z,1020.86
2017-03-30T13:05:15.734Z,1020.94
2017-03-30T13:06:26.060Z,1020.89
2017-03-30T13:07:35.752Z,1020.96
2017-03-30T13:08:46.005Z,1020.92
2017-03-30T13:09:56.294Z,1021
2017-03-30T13:11:06.275Z,1020.92
2017-03-30T13:12:16.571Z,1020.92
2017-03-30T13:13:26.977Z,1020.92
2017-03-30T13:14:37.289Z,1020.93
2017-03-30T13:15:47.232Z,1020.87
2017-03-30T13:16:57.635Z,1020.88
2017-03-30T13:18:07.622Z,1020.89
2017-03-30T13:19:17.566Z,1020.86
2017-03-30T13:20:27.637Z,1020.89
2017-03-30T13:21:37.993Z,1020.83
2017-03-30T13:22:48.337Z,1020.83
2017-03-30T13:23:58.414Z,1020.76
2017-03-30T13:25:08.742Z,1020.81
2017-03-30T13:26:19.054Z,1020.76
2017-03-30T13:27:29.441Z,1020.82
2017-03-30T13:28:39.502Z,1020.79
2017-03-30T13:29:49.476Z,1020.72
2017-03-30T13:30:59.452Z,1020.68
2017-03-30T13:32:09.439Z,1020.65
2017-03-30T13:33:19.068Z,1020.69
2017-03-30T13:34:29.341Z,1020.78
2017-03-30T13:35:38.962Z,1020.7
2017-03-30T13:36:49.258Z,1020.73
2017-03-30T13:37:58.884Z,1020.74
2017-03-30T13:39:09.221Z,1020.68
2017-03-30T13:40:19.503Z,1020.67
2017-03-30T13:41:29.817Z,1020.66
2017-03-30T13:42:39.774Z,1020.69
2017-03-30T13:43:50.079Z,1020.63
2017-03-30T13:45:00.079Z,1020.64
2017-03-30T13:46:10.020Z,1020.63
2017-03-30T13:47:20.339Z,1020.61
2017-03-30T13:48:30.353Z,1020.56
2017-03-30T13:49:40.036Z,1020.56
2017-03-30T13:50:50.026Z,1020.55
2017-03-30T13:52:00.341Z,1020.58
2017-03-30T13:53:10.731Z,1020.63
2017-03-30T13:54:20.051Z,1020.64
2017-03-30T13:55:29.690Z,1020.6
2017-03-30T13:56:39.716Z,1020.61
2017-03-30T13:57:49.676Z,1020.58
2017-03-30T13:58:59.666Z,1020.63
2017-03-30T14:00:09.962Z,1020.6
2017-03-30T14:01:19.978Z,1020.57
2017-03-30T14:02:29.982Z,1020.56
2017-03-30T14:03:40.343Z,1020.6
2017-03-30T14:04:50.398Z,1020.61
2017-03-30T14:06:00.396Z,1020.58
2017-03-30T14:07:10.640Z,1020.57
2017-03-30T14:08:20.883Z,1020.56
2017-03-30T14:09:30.812Z,1020.58
2017-03-30T14:10:40.746Z,1020.57